createdAt,value
2018-07-13T00:01:12.562Z,5.17
2018-07-13T00:03:41.453Z,5.07
2018-07-13T00:06:10.402Z,5.30
2018-07-13T00:08:39.347Z,5.07
2018-07-13T00:11:08.331Z,5.37
2018-07-13T00:13:48.648Z,5.40
2018-07-13T00:16:17.602Z,4.70
2018-07-13T00:18:46.570Z,5.43
2018-07-13T00:21:15.591Z,5.37
2018-07-13T00:23:44.506Z,4.73
2018-07-13T00:26:13.488Z,5.17
2018-07-13T00:28:42.445Z,5.37
2018-07-13T00:31:11.397Z,5.70
2018-07-13T00:33:40.700Z,6.10
2018-07-13T00:36:09.673Z,5.13
2018-07-13T00:38:38.645Z,5.10
2018-07-13T00:41:07.639Z,4.80
2018-07-13T00:43:36.573Z,5.13
2018-07-13T00:46:05.553Z,5.07
2018-07-13T00:48:34.501Z,5.47
2018-07-13T00:51:03.520Z,5.40
2018-07-13T00:53:32.468Z,5.03
2018-07-13T00:56:01.400Z,4.93
2018-07-13T00:58:30.420Z,5.20
2018-07-13T01:00:59.390Z,4.47
2018-07-13T01:03:28.385Z,4.70
2018-07-13T01:05:57.338Z,4.70
2018-07-13T01:08:26.286Z,5.10
2018-07-13T01:10:55.263Z,4.97
2018-07-13T01:13:24.268Z,4.83
2018-07-13T01:15:56.150Z,5.50
2018-07-13T01:18:25.065Z,4.87
2018-07-13T01:20:54.055Z,5.73
2018-07-13T01:23:22.990Z,5.07
2018-07-13T01:25:51.967Z,5.53
2018-07-13T01:28:20.918Z,5.47
2018-07-13T01:30:49.905Z,6.00
2018-07-13T01:33:18.861Z,5.10
2018-07-13T01:35:47.778Z,5.03
2018-07-13T01:38:16.740Z,5.87
2018-07-13T01:40:45.677Z,5.13
2018-07-13T01:43:14.688Z,4.87
2018-07-13T01:45:43.679Z,5.97
2018-07-13T01:48:12.636Z,6.33
2018-07-13T01:50:41.570Z,5.40
2018-07-13T01:53:10.544Z,4.90
2018-07-13T01:55:39.565Z,5.20
2018-07-13T01:58:08.528Z,5.07
2018-07-13T02:00:37.492Z,5.33
2018-07-13T02:03:06.454Z,5.50
2018-07-13T02:05:35.452Z,5.60
2018-07-13T02:08:04.369Z,5.37
2018-07-13T02:10:33.352Z,4.80
2018-07-13T02:13:02.334Z,5.53
2018-07-13T02:15:31.320Z,5.80
2018-07-13T02:18:00.320Z,4.90
2018-07-13T02:20:29.252Z,4.37
2018-07-13T02:22:58.201Z,5.97
2018-07-13T02:25:27.218Z,6.13
2018-07-13T02:27:56.126Z,5.87
2018-07-13T02:30:25.062Z,5.70
2018-07-13T02:32:54.032Z,6.00
2018-07-13T02:35:23.035Z,5.47
2018-07-13T02:37:51.988Z,6.63
2018-07-13T02:40:20.924Z,5.70
2018-07-13T02:42:49.904Z,5.53
2018-07-13T02:45:18.809Z,5.47
2018-07-13T02:47:47.847Z,6.20
2018-07-13T02:50:16.772Z,5.70
2018-07-13T02:52:45.697Z,5.53
2018-07-13T02:55:14.703Z,5.80
2018-07-13T02:57:43.681Z,5.23
2018-07-13T03:00:12.741Z,5.10
2018-07-13T03:02:41.687Z,5.57
2018-07-13T03:05:10.642Z,5.57
2018-07-13T03:07:39.622Z,5.47
2018-07-13T03:10:08.604Z,5.43
2018-07-13T03:12:37.575Z,5.60
2018-07-13T03:15:06.745Z,5.13
2018-07-13T03:17:35.702Z,6.27
2018-07-13T03:20:04.690Z,6.30
2018-07-13T03:22:33.732Z,6.97
2018-07-13T03:25:09.167Z,6.50
2018-07-13T03:27:38.153Z,5.80
2018-07-13T03:30:07.093Z,6.47
2018-07-13T03:32:36.087Z,6.07
2018-07-13T03:35:05.038Z,5.87
2018-07-13T03:37:34.003Z,7.27
2018-07-13T03:40:02.963Z,6.63
2018-07-13T03:42:32.021Z,6.87
2018-07-13T03:45:00.934Z,7.50
2018-07-13T03:47:29.881Z,5.60
2018-07-13T03:49:58.818Z,6.13
2018-07-13T03:52:27.823Z,6.23
2018-07-13T03:54:56.781Z,6.47
2018-07-13T03:57:25.775Z,6.73
2018-07-13T03:59:54.773Z,7.70
2018-07-13T04:02:23.751Z,6.57
2018-07-13T04:04:52.793Z,6.13
2018-07-13T04:07:21.713Z,6.60
2018-07-13T04:09:50.677Z,7.60
2018-07-13T04:12:19.635Z,6.10
2018-07-13T04:14:48.658Z,6.23
2018-07-13T04:17:17.583Z,5.57
2018-07-13T04:19:49.436Z,6.57
2018-07-13T04:22:18.409Z,7.03
2018-07-13T04:24:47.397Z,6.13
2018-07-13T04:27:16.493Z,7.20
2018-07-13T04:29:46.051Z,6.63
2018-07-13T04:32:15.037Z,6.57
2018-07-13T04:34:43.961Z,6.27
2018-07-13T04:37:12.950Z,5.93
2018-07-13T04:39:41.875Z,7.10
2018-07-13T04:42:10.925Z,6.67
2018-07-13T04:44:39.864Z,6.87
2018-07-13T04:47:08.858Z,6.37
2018-07-13T04:49:38.056Z,6.37
2018-07-13T04:52:07.025Z,7.50
2018-07-13T04:54:36.005Z,7.47
2018-07-13T04:57:04.941Z,6.50
2018-07-13T04:59:34.053Z,6.57
2018-07-13T05:02:03.113Z,8.00
2018-07-13T05:04:32.110Z,7.23
2018-07-13T05:07:01.107Z,6.30
2018-07-13T05:09:30.085Z,7.20
2018-07-13T05:11:59.068Z,7.70
2018-07-13T05:14:28.070Z,6.73
2018-07-13T05:16:57.086Z,5.77
2018-07-13T05:19:26.000Z,6.00
2018-07-13T05:21:54.979Z,7.10
2018-07-13T05:24:23.947Z,6.40
2018-07-13T05:26:52.928Z,6.60
2018-07-13T05:29:21.898Z,6.63
2018-07-13T05:31:50.947Z,5.77
2018-07-13T05:34:20.155Z,7.63
2018-07-13T05:36:49.143Z,6.87
2018-07-13T05:39:18.185Z,6.27
2018-07-13T05:41:47.200Z,7.20
2018-07-13T05:44:16.195Z,7.20
2018-07-13T05:46:45.241Z,8.03
2018-07-13T05:49:14.293Z,6.90
2018-07-13T05:51:43.345Z,6.63
2018-07-13T05:54:13.183Z,6.10
2018-07-13T05:56:42.161Z,5.63
2018-07-13T05:59:11.195Z,6.47
2018-07-13T06:01:40.209Z,6.40
2018-07-13T06:04:09.434Z,6.30
2018-07-13T06:06:38.431Z,5.83
2018-07-13T06:09:09.419Z,6.77
2018-07-13T06:11:38.606Z,6.77
2018-07-13T06:14:07.849Z,6.30
2018-07-13T06:16:36.792Z,5.43
2018-07-13T06:19:05.809Z,6.60
2018-07-13T06:21:34.741Z,6.03
2018-07-13T06:24:03.982Z,6.90
2018-07-13T06:26:33.009Z,5.83
2018-07-13T06:29:01.952Z,5.10
2018-07-13T06:31:31.039Z,5.30
2018-07-13T06:33:59.883Z,5.03
2018-07-13T06:36:28.848Z,5.00
2018-07-13T06:38:57.807Z,5.40
2018-07-13T06:41:26.808Z,4.90
2018-07-13T06:43:55.859Z,5.30
2018-07-13T06:46:24.808Z,5.33
2018-07-13T06:48:53.758Z,4.53
2018-07-13T06:51:22.771Z,4.73
2018-07-13T06:53:51.853Z,5.47
2018-07-13T06:56:20.811Z,5.30
2018-07-13T06:59:01.022Z,4.97
2018-07-13T07:01:29.994Z,5.17
2018-07-13T07:04:32.503Z,5.00
2018-07-13T07:07:03.388Z,5.00
2018-07-13T07:09:32.360Z,4.90
2018-07-13T07:13:09.062Z,4.33
2018-07-13T07:15:38.488Z,4.83
2018-07-13T07:18:07.725Z,4.53
2018-07-13T07:20:36.751Z,4.90
2018-07-13T07:23:05.763Z,4.77
2018-07-13T07:25:34.850Z,5.57
2018-07-13T07:28:03.863Z,4.80
2018-07-13T07:30:32.846Z,5.00
2018-07-13T07:33:01.793Z,4.43
2018-07-13T07:35:30.751Z,4.57
2018-07-13T07:37:59.745Z,3.73
2018-07-13T07:40:28.737Z,4.27
2018-07-13T07:42:57.789Z,4.00
2018-07-13T07:45:26.864Z,4.10
2018-07-13T07:47:55.921Z,3.70
2018-07-13T07:50:25.085Z,3.47
2018-07-13T07:52:54.122Z,4.50
2018-07-13T07:55:23.124Z,4.13
2018-07-13T07:57:52.120Z,3.93
2018-07-13T08:00:21.108Z,4.07
2018-07-13T08:02:50.065Z,4.47
2018-07-13T08:05:19.130Z,4.33
2018-07-13T08:07:48.101Z,4.80
2018-07-13T08:10:17.477Z,4.17
2018-07-13T08:12:46.549Z,3.90
2018-07-13T08:15:15.643Z,3.63
2018-07-13T08:17:44.565Z,4.30
2018-07-13T08:20:18.269Z,3.13
2018-07-13T08:22:55.925Z,4.33
2018-07-13T08:25:25.808Z,4.10
2018-07-13T08:27:57.527Z,3.93
2018-07-13T08:30:31.826Z,4.53
2018-07-13T08:33:00.822Z,4.50
2018-07-13T08:35:29.779Z,3.90
2018-07-13T08:37:58.691Z,4.40
2018-07-13T08:40:27.631Z,3.93
2018-07-13T08:42:56.753Z,3.80
2018-07-13T08:45:25.836Z,3.80
2018-07-13T08:47:59.007Z,4.67
2018-07-13T08:50:28.436Z,3.73
2018-07-13T08:52:58.133Z,5.00
2018-07-13T08:55:27.143Z,4.50
2018-07-13T08:57:56.490Z,4.17
2018-07-13T09:00:25.532Z,4.40
2018-07-13T09:02:54.489Z,4.60
2018-07-13T09:05:23.440Z,4.53
2018-07-13T09:07:52.536Z,4.70
2018-07-13T09:10:21.588Z,4.47
2018-07-13T09:12:50.604Z,4.80
2018-07-13T09:15:19.557Z,5.00
2018-07-13T09:17:48.528Z,4.30
2018-07-13T09:20:17.541Z,5.50
2018-07-13T09:22:46.556Z,5.13
2018-07-13T09:25:15.480Z,4.60
2018-07-13T09:27:44.527Z,4.77
2018-07-13T09:30:13.453Z,4.83
2018-07-13T09:32:42.406Z,4.70
2018-07-13T09:35:11.412Z,4.30
2018-07-13T09:37:40.432Z,5.27
2018-07-13T09:40:09.419Z,5.10
2018-07-13T09:42:38.450Z,5.23
2018-07-13T09:45:07.554Z,5.13
2018-07-13T09:47:36.869Z,4.60
2018-07-13T09:50:06.020Z,5.40
2018-07-13T09:52:35.028Z,4.67
2018-07-13T09:55:03.960Z,5.20
2018-07-13T09:57:32.947Z,5.93
2018-07-13T10:00:01.923Z,4.93
2018-07-13T10:02:30.856Z,6.07
2018-07-13T10:04:59.908Z,5.10
2018-07-13T10:07:29.004Z,4.80
2018-07-13T10:09:58.017Z,5.33
2018-07-13T10:12:26.999Z,5.37
2018-07-13T10:14:56.060Z,6.00
2018-07-13T10:17:25.235Z,5.90
2018-07-13T10:19:54.184Z,6.50
2018-07-13T10:22:29.160Z,6.40
2018-07-13T10:25:00.044Z,6.20
2018-07-13T10:27:33.419Z,5.67
2018-07-13T10:30:04.508Z,5.63
2018-07-13T10:32:33.940Z,5.70
2018-07-13T10:35:04.640Z,5.27
2018-07-13T10:37:33.894Z,6.23
2018-07-13T10:40:02.846Z,5.60
2018-07-13T10:42:31.819Z,5.67
2018-07-13T10:45:00.854Z,5.27
2018-07-13T10:47:29.853Z,6.20
2018-07-13T10:49:58.750Z,6.27
2018-07-13T10:52:27.732Z,7.57
2018-07-13T10:54:56.760Z,6.50
2018-07-13T10:57:25.888Z,5.67
2018-07-13T10:59:54.822Z,6.60
2018-07-13T11:02:23.741Z,7.17
2018-07-13T11:04:52.709Z,6.33
2018-07-13T11:07:21.592Z,7.70
2018-07-13T11:09:50.777Z,7.40
2018-07-13T11:12:19.706Z,6.90
2018-07-13T11:14:48.621Z,7.00
2018-07-13T11:17:17.592Z,6.77
2018-07-13T11:19:46.704Z,5.90
2018-07-13T11:22:15.723Z,6.37
2018-07-13T11:24:44.637Z,6.47
2018-07-13T11:27:13.719Z,5.53
2018-07-13T11:29:42.804Z,5.73
2018-07-13T11:32:17.283Z,7.07
2018-07-13T11:34:49.138Z,6.93
2018-07-13T11:37:18.170Z,7.03
2018-07-13T11:39:47.209Z,6.20
2018-07-13T11:42:16.173Z,8.23
2018-07-13T11:44:45.087Z,6.77
2018-07-13T11:47:14.018Z,7.23
2018-07-13T11:49:42.915Z,6.43
2018-07-13T11:52:11.917Z,6.30
2018-07-13T11:54:40.767Z,6.87
2018-07-13T11:57:09.689Z,7.27
2018-07-13T11:59:38.649Z,6.33
2018-07-13T12:02:07.596Z,8.23
2018-07-13T12:04:36.669Z,7.80
2018-07-13T12:07:05.870Z,7.23
2018-07-13T12:09:34.766Z,7.57
2018-07-13T12:12:03.683Z,7.80
2018-07-13T12:14:39.252Z,7.77
2018-07-13T12:17:08.262Z,6.63
2018-07-13T12:19:37.268Z,7.63
2018-07-13T12:22:06.317Z,7.40
2018-07-13T12:24:35.243Z,8.00
2018-07-13T12:27:04.244Z,6.77
2018-07-13T12:29:33.167Z,6.80
2018-07-13T12:32:02.137Z,6.80
2018-07-13T12:34:31.092Z,7.07
2018-07-13T12:37:00.068Z,6.77
2018-07-13T12:39:28.980Z,7.60
2018-07-13T12:41:57.948Z,8.07
2018-07-13T12:44:26.931Z,7.23
2018-07-13T12:46:56.000Z,8.03
2018-07-13T12:49:24.932Z,7.30
2018-07-13T12:51:54.012Z,7.80
2018-07-13T12:54:23.026Z,7.43
2018-07-13T12:56:51.929Z,7.93
2018-07-13T12:59:20.919Z,7.27
2018-07-13T13:01:49.915Z,8.10
2018-07-13T13:04:18.869Z,7.33
2018-07-13T13:06:47.865Z,7.90
2018-07-13T13:09:16.897Z,7.93
2018-07-13T13:11:45.994Z,7.17
2018-07-13T13:14:14.985Z,6.63
2018-07-13T13:16:44.053Z,7.13
2018-07-13T13:19:12.974Z,6.60
2018-07-13T13:21:42.180Z,6.10
2018-07-13T13:24:11.096Z,6.57
2018-07-13T13:26:40.155Z,6.67
2018-07-13T13:29:09.250Z,6.83
2018-07-13T13:31:38.193Z,7.43
2018-07-13T13:34:07.630Z,7.00
2018-07-13T13:36:36.695Z,7.27
2018-07-13T13:39:05.800Z,6.20
2018-07-13T13:41:34.824Z,6.70
2018-07-13T13:44:03.818Z,6.60
2018-07-13T13:46:32.869Z,6.40
2018-07-13T13:49:01.914Z,6.77
2018-07-13T13:51:30.866Z,6.23
2018-07-13T13:53:59.858Z,6.63
2018-07-13T13:56:28.865Z,6.77
2018-07-13T13:58:57.854Z,7.10
2018-07-13T14:01:26.831Z,6.90
2018-07-13T14:03:55.843Z,6.17
2018-07-13T14:06:25.046Z,5.87
2018-07-13T14:08:54.043Z,5.50
2018-07-13T14:11:22.921Z,5.90
2018-07-13T14:13:51.867Z,7.37
2018-07-13T14:16:20.855Z,6.50
2018-07-13T14:18:49.825Z,6.20
2018-07-13T14:21:18.804Z,5.63
2018-07-13T14:23:47.783Z,6.80
2018-07-13T14:26:16.775Z,6.40
2018-07-13T14:28:45.723Z,5.53
2018-07-13T14:31:14.625Z,6.40
2018-07-13T14:33:43.639Z,6.43
2018-07-13T14:36:12.564Z,6.63
2018-07-13T14:38:41.632Z,6.10
2018-07-13T14:41:10.660Z,6.53
2018-07-13T14:43:39.697Z,6.23
2018-07-13T14:46:08.853Z,5.57
2018-07-13T14:48:37.775Z,5.57
2018-07-13T14:51:06.758Z,5.90
2018-07-13T14:53:35.696Z,4.93
2018-07-13T14:56:04.727Z,6.00
2018-07-13T14:58:33.691Z,5.17
2018-07-13T15:01:03.718Z,5.77
2018-07-13T15:03:32.691Z,5.70
2018-07-13T15:06:01.793Z,5.60
2018-07-13T15:08:30.591Z,5.83
2018-07-13T15:10:59.558Z,6.67
2018-07-13T15:13:28.618Z,5.83
2018-07-13T15:15:57.590Z,6.13
2018-07-13T15:18:26.559Z,5.20
2018-07-13T15:20:55.542Z,5.27
2018-07-13T15:23:24.526Z,5.47
2018-07-13T15:25:53.449Z,4.73
2018-07-13T15:28:22.544Z,4.73
2018-07-13T15:30:51.489Z,4.80
2018-07-13T15:33:20.437Z,4.73
2018-07-13T15:35:49.396Z,4.13
2018-07-13T15:38:18.331Z,5.07
2018-07-13T15:40:47.506Z,5.47
2018-07-13T15:43:16.572Z,4.77
2018-07-13T15:45:45.484Z,5.40
2018-07-13T15:48:14.381Z,5.50
2018-07-13T15:50:43.315Z,5.83
2018-07-13T15:53:12.255Z,4.70
2018-07-13T15:55:46.450Z,5.33
2018-07-13T15:58:15.513Z,5.17
2018-07-13T16:00:44.437Z,5.50
2018-07-13T16:03:14.358Z,6.30
2018-07-13T16:05:43.354Z,5.23
2018-07-13T16:08:12.345Z,5.43
2018-07-13T16:10:41.278Z,5.77
2018-07-13T16:13:10.380Z,4.73
2018-07-13T16:15:39.401Z,5.13
2018-07-13T16:18:08.415Z,5.83
2018-07-13T16:20:37.468Z,6.93
2018-07-13T16:23:06.451Z,5.23
2018-07-13T16:25:35.341Z,6.13
2018-07-13T16:28:04.248Z,6.27
2018-07-13T16:30:33.180Z,5.83
2018-07-13T16:33:02.187Z,5.27
2018-07-13T16:35:31.296Z,5.27
2018-07-13T16:38:00.212Z,4.80
2018-07-13T16:40:29.111Z,5.23
2018-07-13T16:42:58.055Z,4.57
2018-07-13T16:45:27.006Z,5.10
2018-07-13T16:47:56.046Z,5.13
2018-07-13T16:50:25.002Z,5.50
2018-07-13T16:52:53.922Z,5.77
2018-07-13T16:55:22.996Z,4.70
2018-07-13T16:57:51.880Z,4.73
2018-07-13T17:00:20.868Z,5.30
2018-07-13T17:02:49.857Z,5.03
2018-07-13T17:05:18.784Z,4.63
2018-07-13T17:07:47.697Z,5.03
2018-07-13T17:10:16.660Z,4.23
2018-07-13T17:12:45.600Z,4.67
2018-07-13T17:15:14.608Z,4.37
2018-07-13T17:17:43.564Z,4.80
2018-07-13T17:20:12.651Z,5.67
2018-07-13T17:22:41.586Z,4.63
2018-07-13T17:25:10.512Z,4.50
2018-07-13T17:27:39.420Z,4.50
2018-07-13T17:30:09.590Z,4.63
2018-07-13T17:32:38.590Z,6.53
2018-07-13T17:35:07.794Z,5.33
2018-07-13T17:37:36.852Z,6.43
2018-07-13T17:40:05.834Z,5.57
2018-07-13T17:42:34.902Z,4.83
2018-07-13T17:45:03.812Z,4.40
2018-07-13T17:47:32.887Z,5.07
2018-07-13T17:50:02.104Z,5.47
2018-07-13T17:52:31.241Z,4.37
2018-07-13T17:55:00.341Z,5.63
2018-07-13T17:57:29.310Z,5.00
2018-07-13T17:59:58.272Z,5.00
2018-07-13T18:02:27.340Z,4.57
2018-07-13T18:04:56.254Z,4.20
2018-07-13T18:07:25.229Z,4.77
2018-07-13T18:09:54.141Z,5.87
2018-07-13T18:12:23.169Z,4.70
2018-07-13T18:14:52.268Z,7.53
2018-07-13T18:17:21.168Z,5.83
2018-07-13T18:19:50.135Z,5.43
2018-07-13T18:22:19.069Z,5.60
2018-07-13T18:24:48.015Z,5.03
2018-07-13T18:27:16.983Z,5.20
2018-07-13T18:29:46.012Z,4.30
2018-07-13T18:32:14.925Z,4.37
2018-07-13T18:34:48.704Z,4.90
2018-07-13T18:37:17.609Z,9.50
2018-07-13T18:39:46.592Z,5.67
2018-07-13T18:42:21.825Z,4.87
2018-07-13T18:44:51.041Z,4.40
2018-07-13T18:47:20.018Z,4.63
2018-07-13T18:49:48.988Z,5.00
2018-07-13T18:52:17.917Z,5.30
2018-07-13T18:55:49.969Z,5.63
2018-07-13T18:58:18.865Z,3.83
2018-07-13T19:00:47.783Z,5.83
2018-07-13T19:03:16.751Z,5.17
2018-07-13T19:05:45.821Z,4.70
2018-07-13T19:08:14.785Z,5.20
2018-07-13T19:10:43.748Z,4.13
2018-07-13T19:13:12.803Z,3.57
2018-07-13T19:15:45.283Z,3.80
2018-07-13T19:18:14.141Z,3.73
2018-07-13T19:20:43.114Z,3.90
2018-07-13T19:23:12.142Z,4.20
2018-07-13T19:25:41.040Z,6.33
2018-07-13T19:28:10.183Z,6.33
2018-07-13T19:30:40.927Z,5.13
2018-07-13T19:33:09.813Z,4.40
2018-07-13T19:35:38.725Z,4.10
2018-07-13T19:38:07.660Z,4.00
2018-07-13T19:40:36.585Z,4.93
2018-07-13T19:43:05.668Z,4.50
2018-07-13T19:45:34.672Z,3.90
2018-07-13T19:48:03.614Z,4.17
2018-07-13T19:50:32.625Z,4.20
2018-07-13T19:53:01.850Z,4.60
2018-07-13T19:55:30.856Z,4.63
2018-07-13T19:57:59.784Z,4.13
2018-07-13T20:00:28.886Z,4.30
2018-07-13T20:02:57.809Z,4.43
2018-07-13T20:05:26.844Z,4.40
2018-07-13T20:07:55.811Z,4.50
2018-07-13T20:10:24.714Z,4.50
2018-07-13T20:12:53.704Z,4.33
2018-07-13T20:15:22.661Z,3.93
2018-07-13T20:17:51.629Z,4.63
2018-07-13T20:20:20.564Z,4.83
2018-07-13T20:22:49.518Z,3.97
2018-07-13T20:25:18.455Z,4.43
2018-07-13T20:27:47.458Z,4.93
2018-07-13T20:30:16.528Z,5.00
2018-07-13T20:32:45.460Z,4.87
2018-07-13T20:35:14.405Z,5.83
2018-07-13T20:37:43.337Z,4.83
2018-07-13T20:40:12.346Z,4.60
2018-07-13T20:42:41.290Z,4.87
2018-07-13T20:45:10.292Z,4.30
2018-07-13T20:47:39.255Z,4.50
2018-07-13T20:50:08.135Z,5.50
2018-07-13T20:52:37.132Z,4.47
2018-07-13T20:55:06.020Z,4.30
2018-07-13T20:57:34.909Z,4.30
2018-07-13T21:00:04.170Z,4.40
2018-07-13T21:02:34.168Z,4.80
2018-07-13T21:05:03.124Z,4.30
2018-07-13T21:07:32.073Z,5.23
2018-07-13T21:10:01.022Z,4.47
2018-07-13T21:12:30.023Z,5.27
2018-07-13T21:14:58.945Z,4.67
2018-07-13T21:17:27.855Z,5.27
2018-07-13T21:19:56.827Z,4.47
2018-07-13T21:22:25.679Z,4.50
2018-07-13T21:24:54.595Z,5.07
2018-07-13T21:27:23.601Z,5.37
2018-07-13T21:29:52.789Z,5.07
2018-07-13T21:32:21.709Z,5.10
2018-07-13T21:34:50.704Z,5.20
2018-07-13T21:37:19.612Z,5.27
2018-07-13T21:39:48.524Z,6.10
2018-07-13T21:42:17.541Z,5.83
2018-07-13T21:44:46.441Z,5.97
2018-07-13T21:47:15.398Z,5.57
2018-07-13T21:49:44.329Z,4.90
2018-07-13T21:52:13.384Z,5.03
2018-07-13T21:54:42.170Z,5.27
2018-07-13T21:57:11.102Z,5.27
2018-07-13T21:59:40.223Z,5.10
2018-07-13T22:02:09.210Z,4.60
2018-07-13T22:04:38.134Z,5.37
2018-07-13T22:07:07.052Z,5.33
2018-07-13T22:09:35.972Z,5.50
2018-07-13T22:12:04.976Z,5.17
2018-07-13T22:14:33.900Z,4.87
2018-07-13T22:17:02.934Z,5.10
2018-07-13T22:19:31.886Z,5.37
2018-07-13T22:22:00.810Z,5.10
2018-07-13T22:24:29.736Z,5.03
2018-07-13T22:26:58.659Z,4.73
2018-07-13T22:29:27.641Z,5.77
2018-07-13T22:31:56.524Z,5.20
2018-07-13T22:34:25.428Z,4.83
2018-07-13T22:36:54.324Z,5.33
2018-07-13T22:39:23.229Z,5.23
2018-07-13T22:41:52.135Z,6.63
2018-07-13T22:44:21.222Z,6.27
2018-07-13T22:46:50.100Z,6.70
2018-07-13T22:49:19.038Z,7.20
2018-07-13T22:51:47.936Z,7.20
2018-07-13T22:54:16.895Z,6.43
2018-07-13T22:56:45.828Z,6.70
2018-07-13T22:59:14.791Z,6.57
2018-07-13T23:01:43.908Z,6.87
2018-07-13T23:04:12.899Z,6.70
2018-07-13T23:06:41.828Z,7.33
2018-07-13T23:09:10.777Z,6.40
2018-07-13T23:11:39.725Z,6.87
2018-07-13T23:14:08.656Z,6.60
2018-07-13T23:16:37.609Z,6.50
2018-07-13T23:19:06.840Z,6.67
2018-07-13T23:21:35.775Z,6.17
2018-07-13T23:24:04.694Z,6.43
2018-07-13T23:26:33.597Z,6.57
2018-07-13T23:29:02.587Z,6.27
2018-07-13T23:31:31.485Z,5.50
2018-07-13T23:34:00.471Z,5.80
2018-07-13T23:36:29.437Z,5.60
2018-07-13T23:38:58.331Z,6.03
2018-07-13T23:41:27.249Z,5.93
2018-07-13T23:43:56.182Z,6.80
2018-07-13T23:46:25.111Z,6.27
2018-07-13T23:48:54.027Z,5.77
2018-07-13T23:51:23.022Z,5.77
2018-07-13T23:53:52.048Z,5.87
2018-07-13T23:56:21.546Z,5.53
2018-07-13T23:58:50.522Z,6.30
